createdAt,value
2022-09-15T00:01:06.064Z,60.80
2022-09-15T00:03:32.848Z,61.10
2022-09-15T00:05:59.617Z,61.20
2022-09-15T00:08:26.474Z,61.20
2022-09-15T00:11:02.371Z,61.10
2022-09-15T00:13:29.433Z,61.00
2022-09-15T00:15:56.340Z,61.30
2022-09-15T00:18:23.208Z,61.80
2022-09-15T00:20:50.011Z,61.20
2022-09-15T00:23:18.009Z,61.20
2022-09-15T00:25:48.329Z,62.20
2022-09-15T00:28:17.113Z,61.90
2022-09-15T00:31:06.785Z,61.80
2022-09-15T00:33:33.916Z,62.50
2022-09-15T00:36:04.050Z,62.10
2022-09-15T00:38:31.524Z,62.20
2022-09-15T00:40:59.120Z,61.90
2022-09-15T00:43:58.369Z,62.20
2022-09-15T00:46:32.535Z,62.70
2022-09-15T00:49:17.548Z,62.50
2022-09-15T00:51:55.047Z,62.90
2022-09-15T00:54:39.282Z,62.90
2022-09-15T00:57:12.891Z,62.80
2022-09-15T00:59:42.729Z,62.70
2022-09-15T01:02:24.725Z,62.80
2022-09-15T01:04:57.535Z,62.80
2022-09-15T01:07:55.993Z,62.60
2022-09-15T01:10:26.283Z,63.10
2022-09-15T01:12:57.104Z,63.00
2022-09-15T01:15:31.090Z,63.10
2022-09-15T01:18:17.295Z,63.10
2022-09-15T01:21:24.189Z,63.60
2022-09-15T01:24:09.821Z,63.70
2022-09-15T01:27:18.492Z,64.30
2022-09-15T01:30:12.057Z,64.10
2022-09-15T01:33:06.489Z,64.30
2022-09-15T01:35:36.565Z,64.40
2022-09-15T01:38:12.268Z,64.90
2022-09-15T01:41:12.148Z,64.60
2022-09-15T01:44:08.733Z,64.40
2022-09-15T01:46:46.817Z,64.60
2022-09-15T01:49:25.339Z,64.20
2022-09-15T01:51:54.310Z,64.20
2022-09-15T01:54:32.878Z,64.20
2022-09-15T01:56:59.692Z,64.40
2022-09-15T01:59:26.563Z,64.00
2022-09-15T02:02:02.997Z,64.00
2022-09-15T02:04:39.387Z,64.30
2022-09-15T02:07:35.450Z,65.40
2022-09-15T02:10:12.520Z,64.20
2022-09-15T02:12:53.775Z,64.40
2022-09-15T02:15:44.091Z,64.70
2022-09-15T02:18:14.668Z,64.80
2022-09-15T02:20:49.939Z,64.50
2022-09-15T02:23:34.877Z,64.40
2022-09-15T02:26:07.208Z,65.10
2022-09-15T02:28:38.663Z,64.50
2022-09-15T02:31:09.750Z,64.60
2022-09-15T02:33:41.166Z,64.70
2022-09-15T02:36:09.912Z,65.40
2022-09-15T02:38:42.202Z,64.80
2022-09-15T02:41:09.045Z,65.20
2022-09-15T02:43:45.499Z,64.40
2022-09-15T02:46:13.738Z,65.20
2022-09-15T02:48:40.566Z,64.40
2022-09-15T02:51:07.426Z,64.10
2022-09-15T02:53:35.417Z,64.40
2022-09-15T02:56:05.924Z,63.90
2022-09-15T02:58:34.222Z,63.90
2022-09-15T03:01:06.137Z,64.10
2022-09-15T03:03:34.069Z,64.40
2022-09-15T03:06:16.451Z,64.00
2022-09-15T03:08:55.110Z,63.90
2022-09-15T03:11:24.347Z,64.30
2022-09-15T03:13:56.639Z,64.10
2022-09-15T03:16:24.473Z,64.40
2022-09-15T03:18:52.169Z,64.00
2022-09-15T03:21:19.007Z,63.70
2022-09-15T03:23:45.871Z,63.80
2022-09-15T03:26:12.936Z,63.80
2022-09-15T03:28:40.299Z,63.90
2022-09-15T03:31:08.985Z,63.70
2022-09-15T03:33:36.796Z,64.00
2022-09-15T03:36:04.487Z,63.90
2022-09-15T03:38:31.269Z,64.00
2022-09-15T03:40:59.612Z,64.10
2022-09-15T03:43:27.102Z,64.10
2022-09-15T03:45:55.047Z,64.10
2022-09-15T03:48:22.617Z,64.20
2022-09-15T03:50:49.419Z,64.20
2022-09-15T03:53:16.662Z,64.20
2022-09-15T03:55:45.284Z,64.30
2022-09-15T03:58:13.356Z,64.20
2022-09-15T04:00:41.159Z,64.80
2022-09-15T04:03:08.453Z,64.40
2022-09-15T04:05:35.987Z,64.30
2022-09-15T04:08:03.298Z,64.20
2022-09-15T04:10:30.203Z,64.50
2022-09-15T04:12:57.396Z,64.00
2022-09-15T04:15:24.239Z,64.00
2022-09-15T04:17:51.018Z,63.90
2022-09-15T04:20:17.917Z,63.70
2022-09-15T04:22:44.985Z,63.80
2022-09-15T04:25:12.128Z,63.70
2022-09-15T04:27:39.017Z,63.70
2022-09-15T04:30:08.246Z,63.50
2022-09-15T04:32:35.721Z,63.80
2022-09-15T04:35:03.925Z,64.00
2022-09-15T04:37:31.573Z,63.60
2022-09-15T04:39:58.416Z,63.90
2022-09-15T04:42:25.589Z,63.40
2022-09-15T04:44:52.275Z,63.20
2022-09-15T04:47:19.496Z,63.00
2022-09-15T04:49:46.338Z,63.10
2022-09-15T04:52:13.057Z,63.30
2022-09-15T04:54:39.740Z,63.00
2022-09-15T04:57:06.783Z,62.80
2022-09-15T04:59:33.588Z,62.60
2022-09-15T05:02:00.331Z,62.60
2022-09-15T05:04:27.178Z,62.60
2022-09-15T05:06:53.822Z,62.40
2022-09-15T05:09:20.726Z,62.50
2022-09-15T05:11:47.414Z,62.70
2022-09-15T05:14:14.128Z,62.50
2022-09-15T05:16:40.883Z,62.60
2022-09-15T05:19:07.596Z,62.00
2022-09-15T05:21:34.286Z,61.90
2022-09-15T05:24:01.214Z,61.90
2022-09-15T05:26:29.241Z,61.80
2022-09-15T05:28:56.835Z,62.10
2022-09-15T05:31:30.883Z,61.90
2022-09-15T05:34:00.851Z,61.70
2022-09-15T05:36:27.626Z,61.60
2022-09-15T05:38:56.540Z,61.30
2022-09-15T05:41:24.289Z,61.40
2022-09-15T05:43:51.490Z,61.30
2022-09-15T05:46:20.340Z,61.20
2022-09-15T05:48:47.101Z,61.30
2022-09-15T05:51:14.114Z,60.80
2022-09-15T05:53:41.161Z,60.80
2022-09-15T05:56:11.862Z,60.60
2022-09-15T05:58:40.507Z,60.90
2022-09-15T06:01:11.680Z,60.30
2022-09-15T06:03:38.361Z,60.30
2022-09-15T06:06:06.831Z,60.00
2022-09-15T06:08:35.989Z,60.10
2022-09-15T06:11:09.492Z,60.00
2022-09-15T06:13:36.690Z,60.10
2022-09-15T06:16:06.642Z,59.30
2022-09-15T06:18:35.365Z,59.50
2022-09-15T06:21:13.593Z,59.00
2022-09-15T06:23:40.768Z,59.10
2022-09-15T06:26:16.654Z,58.90
2022-09-15T06:28:49.340Z,59.10
2022-09-15T06:31:16.528Z,59.50
2022-09-15T06:33:45.517Z,58.90
2022-09-15T06:36:17.025Z,58.90
2022-09-15T06:38:44.567Z,59.20
2022-09-15T06:41:12.331Z,58.20
2022-09-15T06:43:39.949Z,58.10
2022-09-15T06:46:09.826Z,58.30
2022-09-15T06:48:38.006Z,58.40
2022-09-15T06:51:06.106Z,59.40
2022-09-15T06:53:35.292Z,58.20
2022-09-15T06:56:07.772Z,58.60
2022-09-15T06:58:35.974Z,58.70
2022-09-15T07:01:04.439Z,59.40
2022-09-15T07:03:31.528Z,58.10
2022-09-15T07:05:58.289Z,57.60
2022-09-15T07:08:24.946Z,57.00
2022-09-15T07:10:51.683Z,56.90
2022-09-15T07:13:18.342Z,56.10
2022-09-15T07:15:52.951Z,55.70
2022-09-15T07:18:19.731Z,55.70
2022-09-15T07:20:46.448Z,55.60
2022-09-15T07:23:13.372Z,55.60
2022-09-15T07:25:43.981Z,55.90
2022-09-15T07:28:15.175Z,56.20
2022-09-15T07:30:42.786Z,57.20
2022-09-15T07:33:13.079Z,57.20
2022-09-15T07:35:43.844Z,57.60
2022-09-15T07:38:11.438Z,57.90
2022-09-15T07:40:38.601Z,57.70
2022-09-15T07:43:06.166Z,57.70
2022-09-15T07:45:33.306Z,58.00
2022-09-15T07:48:00.013Z,57.70
2022-09-15T07:50:26.788Z,57.40
2022-09-15T07:52:56.321Z,57.50
2022-09-15T07:55:23.906Z,57.40
2022-09-15T07:58:01.026Z,56.40
2022-09-15T08:00:28.196Z,56.20
2022-09-15T08:02:55.808Z,56.20
2022-09-15T08:05:28.161Z,56.00
2022-09-15T08:07:55.946Z,56.00
2022-09-15T08:10:25.043Z,56.20
2022-09-15T08:12:52.664Z,55.70
2022-09-15T08:15:19.608Z,55.60
2022-09-15T08:17:46.612Z,55.60
2022-09-15T08:20:13.906Z,55.30
2022-09-15T08:22:42.146Z,54.90
2022-09-15T08:25:09.339Z,54.50
2022-09-15T08:27:36.041Z,54.40
2022-09-15T08:30:03.078Z,53.80
2022-09-15T08:32:30.100Z,53.40
2022-09-15T08:34:56.811Z,53.30
2022-09-15T08:37:23.523Z,53.20
2022-09-15T08:39:50.308Z,52.50
2022-09-15T08:42:19.422Z,52.40
2022-09-15T08:44:56.758Z,52.60
2022-09-15T08:47:37.241Z,52.50
2022-09-15T08:50:22.988Z,52.50
2022-09-15T08:52:49.618Z,52.40
2022-09-15T08:55:31.007Z,51.90
2022-09-15T08:57:57.751Z,52.00
2022-09-15T09:00:24.678Z,51.90
2022-09-15T09:02:58.009Z,52.00
2022-09-15T09:05:58.218Z,52.20
2022-09-15T09:08:43.771Z,52.10
2022-09-15T09:11:53.331Z,51.70
2022-09-15T09:14:46.260Z,52.10
2022-09-15T09:17:16.192Z,52.10
2022-09-15T09:20:00.934Z,51.80
2022-09-15T09:22:32.313Z,51.90
2022-09-15T09:25:05.891Z,51.70
2022-09-15T09:27:43.375Z,51.70
2022-09-15T09:30:15.677Z,51.90
2022-09-15T09:33:07.648Z,52.00
2022-09-15T09:35:45.996Z,52.50
2022-09-15T09:38:19.539Z,53.00
2022-09-15T09:40:46.795Z,53.40
2022-09-15T09:43:13.569Z,53.90
2022-09-15T09:45:40.270Z,53.70
2022-09-15T09:48:18.789Z,53.60
2022-09-15T09:50:45.925Z,54.00
2022-09-15T09:53:33.310Z,54.00
2022-09-15T09:56:16.070Z,54.10
2022-09-15T09:58:43.324Z,53.90
2022-09-15T10:01:15.529Z,53.30
2022-09-15T10:03:43.787Z,52.80
2022-09-15T10:06:22.525Z,52.50
2022-09-15T10:08:58.687Z,52.60
2022-09-15T10:11:47.814Z,52.10
2022-09-15T10:14:52.597Z,52.00
2022-09-15T10:17:26.599Z,52.00
2022-09-15T10:19:55.710Z,51.50
2022-09-15T10:22:38.541Z,51.10
2022-09-15T10:25:20.310Z,50.50
2022-09-15T10:28:09.190Z,51.20
2022-09-15T10:30:40.095Z,51.60
2022-09-15T10:33:24.543Z,51.80
2022-09-15T10:35:51.966Z,52.10
2022-09-15T10:38:29.995Z,52.00
2022-09-15T10:41:11.898Z,51.70
2022-09-15T10:44:06.065Z,51.20
2022-09-15T10:47:10.618Z,50.80
2022-09-15T10:49:52.116Z,50.50
2022-09-15T10:52:31.211Z,50.30
2022-09-15T10:55:27.640Z,50.00
2022-09-15T10:58:19.175Z,50.00
2022-09-15T11:01:13.859Z,48.60
2022-09-15T11:04:00.116Z,48.10
2022-09-15T11:06:52.777Z,47.90
2022-09-15T11:09:21.525Z,47.80
2022-09-15T11:11:55.082Z,47.30
2022-09-15T11:14:56.268Z,47.00
2022-09-15T11:17:53.240Z,46.80
2022-09-15T11:20:22.988Z,46.70
2022-09-15T11:23:05.533Z,46.80
2022-09-15T11:25:35.595Z,47.10
2022-09-15T11:28:19.830Z,46.10
2022-09-15T11:31:00.968Z,45.90
2022-09-15T11:33:42.503Z,45.80
2022-09-15T11:36:17.994Z,45.90
2022-09-15T11:39:04.014Z,45.50
2022-09-15T11:41:43.342Z,44.90
2022-09-15T11:44:30.729Z,44.30
2022-09-15T11:47:33.398Z,43.50
2022-09-15T11:50:23.074Z,43.40
2022-09-15T11:53:25.647Z,43.20
2022-09-15T11:56:01.037Z,43.10
2022-09-15T11:58:36.198Z,42.70
2022-09-15T12:01:16.734Z,43.00
2022-09-15T12:04:04.214Z,43.00
2022-09-15T12:06:42.013Z,42.60
2022-09-15T12:09:17.480Z,42.40
2022-09-15T12:11:54.522Z,41.40
2022-09-15T12:14:27.048Z,40.80
2022-09-15T12:16:54.146Z,39.50
2022-09-15T12:19:33.388Z,38.10
2022-09-15T12:22:12.304Z,36.80
2022-09-15T12:24:45.898Z,36.40
2022-09-15T12:27:17.562Z,36.80
2022-09-15T12:29:50.079Z,36.30
2022-09-15T12:32:16.907Z,36.10
2022-09-15T12:34:58.673Z,36.80
2022-09-15T12:37:30.237Z,37.40
2022-09-15T12:39:57.072Z,38.50
2022-09-15T12:42:31.193Z,39.90
2022-09-15T12:45:03.782Z,41.50
2022-09-15T12:47:40.263Z,42.90
2022-09-15T12:50:15.714Z,44.10
2022-09-15T12:52:53.591Z,45.30
2022-09-15T12:55:29.727Z,46.20
2022-09-15T12:58:00.141Z,46.90
2022-09-15T13:00:28.692Z,46.70
2022-09-15T13:02:56.591Z,46.80
2022-09-15T13:05:47.254Z,47.10
2022-09-15T13:08:24.320Z,47.50
2022-09-15T13:11:14.006Z,47.60
2022-09-15T13:14:02.146Z,47.80
2022-09-15T13:16:41.034Z,47.90
2022-09-15T13:19:29.706Z,47.90
2022-09-15T13:22:11.658Z,47.80
2022-09-15T13:24:50.440Z,47.80
2022-09-15T13:27:22.233Z,47.60
2022-09-15T13:30:06.586Z,47.60
2022-09-15T13:33:04.296Z,46.90
2022-09-15T13:35:51.805Z,46.40
2022-09-15T13:38:35.904Z,46.00
2022-09-15T13:41:32.795Z,45.60
2022-09-15T13:44:24.124Z,45.40
2022-09-15T13:47:02.613Z,44.80
2022-09-15T13:50:28.821Z,43.40
2022-09-15T13:53:20.574Z,42.50
2022-09-15T13:55:48.288Z,42.10
2022-09-15T14:01:07.434Z,42.20
2022-09-15T14:03:50.286Z,42.40
2022-09-15T14:06:33.530Z,42.50
2022-09-15T14:09:06.219Z,42.50
2022-09-15T14:11:35.389Z,42.60
2022-09-15T14:14:02.973Z,43.10
2022-09-15T14:16:37.791Z,43.70
2022-09-15T14:19:35.363Z,45.00
2022-09-15T14:22:26.034Z,46.00
2022-09-15T14:24:53.517Z,46.50
2022-09-15T14:27:24.358Z,46.50
2022-09-15T14:29:57.625Z,46.60
2022-09-15T14:32:27.822Z,46.10
2022-09-15T14:34:59.622Z,45.20
2022-09-15T14:37:32.003Z,44.60
2022-09-15T14:40:00.503Z,44.30
2022-09-15T14:42:34.949Z,43.90
2022-09-15T14:48:18.022Z,43.60
2022-09-15T14:50:46.862Z,43.00
2022-09-15T14:53:21.970Z,42.20
2022-09-15T14:55:59.288Z,42.40
2022-09-15T14:58:52.056Z,42.00
2022-09-15T15:01:45.960Z,41.70
2022-09-15T15:04:23.075Z,43.20
2022-09-15T15:06:53.128Z,42.00
2022-09-15T15:09:46.997Z,41.50
2022-09-15T15:12:21.501Z,41.80
2022-09-15T15:14:48.445Z,42.00
2022-09-15T15:17:35.229Z,42.50
2022-09-15T15:20:08.048Z,42.60
2022-09-15T15:22:35.634Z,42.60
2022-09-15T15:25:02.723Z,42.70
2022-09-15T15:27:32.389Z,43.10
2022-09-15T15:30:26.633Z,43.60
2022-09-15T15:32:54.752Z,44.00
2022-09-15T15:35:21.749Z,44.10
2022-09-15T15:37:49.847Z,44.60
2022-09-15T15:40:23.084Z,45.00
2022-09-15T15:42:57.900Z,45.40
2022-09-15T15:45:30.411Z,45.40
2022-09-15T15:47:57.318Z,46.20
2022-09-15T15:50:28.272Z,46.00
2022-09-15T15:52:55.595Z,46.70
2022-09-15T15:55:26.665Z,47.10
2022-09-15T15:57:55.447Z,47.90
2022-09-15T16:00:32.091Z,48.50
2022-09-15T16:02:58.849Z,48.60
2022-09-15T16:05:27.543Z,48.00
2022-09-15T16:07:56.504Z,47.70
2022-09-15T16:10:27.899Z,47.20
2022-09-15T16:12:54.569Z,46.80
2022-09-15T16:15:21.672Z,46.90
2022-09-15T16:17:49.309Z,47.80
2022-09-15T16:20:16.849Z,48.10
2022-09-15T16:22:43.738Z,48.50
2022-09-15T16:25:18.185Z,48.30
2022-09-15T16:27:44.866Z,48.10
2022-09-15T16:30:14.342Z,48.20
2022-09-15T16:32:41.233Z,47.70
2022-09-15T16:35:39.478Z,47.70
2022-09-15T16:38:07.593Z,48.20
2022-09-15T16:40:34.669Z,48.40
2022-09-15T16:43:01.768Z,48.70
2022-09-15T16:45:38.199Z,48.80
2022-09-15T16:48:08.040Z,48.90
2022-09-15T16:50:35.232Z,48.80
2022-09-15T16:53:02.356Z,48.90
2022-09-15T16:55:45.781Z,49.30
2022-09-15T16:58:14.149Z,49.80
2022-09-15T17:00:42.097Z,50.10
2022-09-15T17:03:10.181Z,50.50
2022-09-15T17:05:41.587Z,50.70
2022-09-15T17:08:12.207Z,51.10
2022-09-15T17:10:40.205Z,51.10
2022-09-15T17:13:07.789Z,51.80
2022-09-15T17:15:38.297Z,51.70
2022-09-15T17:18:06.431Z,51.70
2022-09-15T17:20:39.131Z,51.70
2022-09-15T17:23:25.584Z,51.90
2022-09-15T17:26:00.314Z,52.20
2022-09-15T17:28:29.594Z,51.90
2022-09-15T17:31:04.926Z,52.10
2022-09-15T17:33:32.490Z,52.10
2022-09-15T17:35:59.922Z,52.00
2022-09-15T17:38:26.962Z,52.00
2022-09-15T17:40:56.926Z,52.10
2022-09-15T17:43:27.841Z,52.40
2022-09-15T17:45:55.454Z,52.40
2022-09-15T17:48:22.961Z,52.90
2022-09-15T17:50:49.991Z,52.50
2022-09-15T17:53:24.133Z,53.60
2022-09-15T17:55:51.190Z,53.00
2022-09-15T17:58:18.315Z,52.90
2022-09-15T18:00:46.081Z,52.90
2022-09-15T18:03:19.018Z,53.00
2022-09-15T18:05:45.898Z,53.20
2022-09-15T18:08:13.188Z,53.30
2022-09-15T18:10:39.976Z,53.50
2022-09-15T18:13:07.056Z,53.60
2022-09-15T18:15:35.388Z,53.60
2022-09-15T18:18:04.217Z,53.90
2022-09-15T18:20:32.950Z,54.10
2022-09-15T18:23:00.162Z,54.20
2022-09-15T18:25:34.940Z,53.90
2022-09-15T18:28:03.246Z,54.20
2022-09-15T18:30:32.826Z,54.60
2022-09-15T18:32:59.796Z,55.60
2022-09-15T18:35:26.922Z,56.20
2022-09-15T18:37:59.697Z,56.80
2022-09-15T18:40:28.070Z,57.90
2022-09-15T18:42:56.443Z,58.10
2022-09-15T18:45:23.280Z,58.30
2022-09-15T18:47:51.755Z,58.70
2022-09-15T18:50:20.732Z,59.50
2022-09-15T18:52:47.901Z,60.10
2022-09-15T18:55:17.582Z,60.60
2022-09-15T18:57:45.085Z,61.20
2022-09-15T19:00:14.834Z,61.00
2022-09-15T19:02:41.553Z,61.10
2022-09-15T19:05:11.392Z,61.60
2022-09-15T19:07:38.830Z,61.50
2022-09-15T19:10:07.711Z,60.30
2022-09-15T19:12:38.320Z,60.30
2022-09-15T19:15:10.755Z,60.80
2022-09-15T19:17:39.267Z,60.20
2022-09-15T19:20:08.209Z,60.20
2022-09-15T19:22:35.713Z,60.40
2022-09-15T19:25:02.942Z,60.00
2022-09-15T19:27:29.947Z,60.00
2022-09-15T19:29:56.639Z,60.20
2022-09-15T19:32:23.612Z,59.60
2022-09-15T19:34:50.462Z,59.50
2022-09-15T19:37:20.269Z,59.50
2022-09-15T19:39:48.059Z,60.20
2022-09-15T19:44:42.231Z,59.70
2022-09-15T19:47:09.540Z,59.70
2022-09-15T19:49:36.287Z,59.80
2022-09-15T19:52:03.042Z,60.00
2022-09-15T19:54:30.830Z,59.90
2022-09-15T19:56:57.835Z,60.60
2022-09-15T19:59:30.185Z,60.20
2022-09-15T20:01:57.927Z,60.40
2022-09-15T20:04:24.824Z,60.40
2022-09-15T20:06:51.793Z,60.60
2022-09-15T20:09:18.759Z,60.90
2022-09-15T20:11:45.491Z,61.30
2022-09-15T20:14:12.185Z,61.60
2022-09-15T20:16:39.238Z,62.10
2022-09-15T20:19:06.153Z,62.30
2022-09-15T20:21:51.769Z,62.60
2022-09-15T20:24:19.729Z,63.00
2022-09-15T20:26:46.517Z,62.90
2022-09-15T20:29:14.270Z,62.60
2022-09-15T20:31:41.378Z,62.90
2022-09-15T20:34:08.338Z,62.70
2022-09-15T20:36:38.360Z,63.00
2022-09-15T20:39:09.144Z,63.60
2022-09-15T20:41:35.939Z,63.60
2022-09-15T20:44:02.902Z,63.30
2022-09-15T20:46:31.177Z,63.40
2022-09-15T20:48:58.079Z,63.20
2022-09-15T20:51:27.866Z,63.20
2022-09-15T20:53:56.756Z,63.80
2022-09-15T20:56:26.274Z,63.50
2022-09-15T20:58:55.190Z,63.50
2022-09-15T21:01:32.559Z,63.60
2022-09-15T21:03:59.750Z,64.00
2022-09-15T21:06:27.804Z,63.10
2022-09-15T21:08:56.100Z,63.70
2022-09-15T21:11:24.033Z,63.50
2022-09-15T21:13:51.136Z,63.50
2022-09-15T21:16:23.836Z,63.70
2022-09-15T21:18:52.402Z,64.50
2022-09-15T21:21:30.407Z,64.30
2022-09-15T21:24:03.828Z,64.80
2022-09-15T21:27:00.295Z,64.70
2022-09-15T21:29:27.853Z,65.10
2022-09-15T21:31:58.279Z,64.50
2022-09-15T21:34:25.650Z,65.10
2022-09-15T21:36:53.586Z,64.20
2022-09-15T21:39:21.252Z,64.10
2022-09-15T21:41:47.958Z,64.30
2022-09-15T21:44:14.722Z,64.40
2022-09-15T21:46:41.414Z,64.60
2022-09-15T21:49:08.781Z,64.70
2022-09-15T21:51:36.189Z,65.00
2022-09-15T21:54:02.930Z,65.20
2022-09-15T21:56:30.117Z,65.20
2022-09-15T21:58:57.158Z,65.40
2022-09-15T22:01:27.666Z,65.20
2022-09-15T22:03:59.543Z,65.80
2022-09-15T22:06:32.334Z,65.50
2022-09-15T22:09:00.444Z,65.60
2022-09-15T22:11:27.537Z,65.30
2022-09-15T22:13:54.594Z,65.00
2022-09-15T22:16:23.321Z,65.00
2022-09-15T22:18:50.717Z,65.50
2022-09-15T22:21:23.412Z,65.30
2022-09-15T22:23:52.076Z,65.60
2022-09-15T22:26:21.639Z,65.70
2022-09-15T22:28:48.866Z,66.10
2022-09-15T22:31:17.892Z,65.60
2022-09-15T22:33:44.727Z,65.90
2022-09-15T22:36:12.716Z,65.70
2022-09-15T22:38:39.454Z,65.90
2022-09-15T22:41:09.142Z,65.70
2022-09-15T22:43:36.719Z,66.40
2022-09-15T22:46:03.824Z,66.00
2022-09-15T22:48:30.558Z,65.80
2022-09-15T22:50:57.357Z,65.80
2022-09-15T22:53:25.248Z,65.70
2022-09-15T22:55:53.300Z,65.80
2022-09-15T22:58:20.079Z,66.20
2022-09-15T23:00:46.847Z,65.90
2022-09-15T23:03:13.673Z,65.90
2022-09-15T23:05:40.428Z,65.90
2022-09-15T23:08:08.487Z,65.80
2022-09-15T23:10:35.178Z,66.10
2022-09-15T23:13:02.135Z,66.30
2022-09-15T23:15:28.837Z,65.80
2022-09-15T23:17:55.528Z,65.90
2022-09-15T23:20:22.156Z,66.00
2022-09-15T23:22:48.817Z,66.10
2022-09-15T23:25:15.534Z,65.90
2022-09-15T23:27:42.448Z,65.90
2022-09-15T23:30:09.914Z,65.70
2022-09-15T23:32:36.963Z,66.00
2022-09-15T23:35:03.774Z,65.80
2022-09-15T23:37:30.478Z,66.00
2022-09-15T23:39:57.301Z,66.10
2022-09-15T23:42:24.053Z,66.00
2022-09-15T23:44:50.754Z,66.10
2022-09-15T23:47:17.420Z,66.20
2022-09-15T23:49:44.136Z,65.80
2022-09-15T23:52:10.836Z,65.70
2022-09-15T23:54:37.564Z,65.80
2022-09-15T23:57:04.394Z,65.80
2022-09-15T23:59:31.041Z,65.90
